createdAt,value
2019-01-30T00:02:00.108Z,60.81
2019-01-30T00:05:02.255Z,60.88
2019-01-30T00:08:04.418Z,60.86
2019-01-30T00:11:06.416Z,60.89
2019-01-30T00:14:08.426Z,60.95
2019-01-30T00:17:10.341Z,60.85
2019-01-30T00:20:12.546Z,61.54
2019-01-30T00:23:14.507Z,61.23
2019-01-30T00:26:16.587Z,61.32
2019-01-30T00:29:18.527Z,61.44
2019-01-30T00:32:20.459Z,61.22
2019-01-30T00:35:23.434Z,61.31
2019-01-30T00:38:26.234Z,61.39
2019-01-30T00:41:28.185Z,61.66
2019-01-30T00:44:30.153Z,61.36
2019-01-30T00:47:32.110Z,61.34
2019-01-30T00:50:34.303Z,61.21
2019-01-30T00:53:36.152Z,61.03
2019-01-30T00:56:39.254Z,60.83
2019-01-30T00:59:41.230Z,60.66
2019-01-30T01:02:43.300Z,60.71
2019-01-30T01:05:45.266Z,60.56
2019-01-30T01:08:47.221Z,60.87
2019-01-30T01:11:49.227Z,60.80
2019-01-30T01:14:51.147Z,60.79
2019-01-30T01:17:53.183Z,61.05
2019-01-30T01:20:55.223Z,61.30
2019-01-30T01:23:57.215Z,61.64
2019-01-30T01:26:59.528Z,61.51
2019-01-30T01:30:01.552Z,61.35
2019-01-30T01:33:03.479Z,61.41
2019-01-30T01:36:05.384Z,61.48
2019-01-30T01:39:07.354Z,61.42
2019-01-30T01:42:10.253Z,61.39
2019-01-30T01:45:15.503Z,61.34
2019-01-30T01:48:17.425Z,61.46
2019-01-30T01:51:19.788Z,61.42
2019-01-30T01:54:22.578Z,61.73
2019-01-30T01:57:24.670Z,61.75
2019-01-30T02:00:35.322Z,61.93
2019-01-30T02:03:30.555Z,61.88
2019-01-30T02:06:32.610Z,61.88
2019-01-30T02:09:34.623Z,61.92
2019-01-30T02:12:36.514Z,61.92
2019-01-30T02:15:38.507Z,61.94
2019-01-30T02:18:40.427Z,62.08
2019-01-30T02:21:42.387Z,62.33
2019-01-30T02:24:44.319Z,62.30
2019-01-30T02:27:46.301Z,62.71
2019-01-30T02:30:48.208Z,63.03
2019-01-30T02:33:50.143Z,62.85
2019-01-30T02:36:57.913Z,62.94
2019-01-30T02:39:59.908Z,63.03
2019-01-30T02:43:01.865Z,63.05
2019-01-30T02:46:03.830Z,62.84
2019-01-30T02:49:05.762Z,62.79
2019-01-30T02:52:07.718Z,63.02
2019-01-30T02:55:12.351Z,62.92
2019-01-30T02:58:14.912Z,63.08
2019-01-30T03:01:16.871Z,63.16
2019-01-30T03:04:19.951Z,63.17
2019-01-30T03:07:21.864Z,63.09
2019-01-30T03:10:23.893Z,63.20
2019-01-30T03:13:26.065Z,63.36
2019-01-30T03:16:27.981Z,63.33
2019-01-30T03:19:29.903Z,63.19
2019-01-30T03:22:31.815Z,63.24
2019-01-30T03:25:33.756Z,63.06
2019-01-30T03:28:35.839Z,63.21
2019-01-30T03:31:37.871Z,63.07
2019-01-30T03:34:39.916Z,63.07
2019-01-30T03:37:41.855Z,62.89
2019-01-30T03:40:44.183Z,63.18
2019-01-30T03:43:46.108Z,63.29
2019-01-30T03:46:48.071Z,63.26
2019-01-30T03:49:49.959Z,63.08
2019-01-30T03:52:51.915Z,62.81
2019-01-30T03:55:53.899Z,62.73
2019-01-30T03:58:55.948Z,62.74
2019-01-30T04:01:57.857Z,62.90
2019-01-30T04:04:59.831Z,62.85
2019-01-30T04:08:01.794Z,63.00
2019-01-30T04:11:03.911Z,63.34
2019-01-30T04:14:05.835Z,63.31
2019-01-30T04:17:08.292Z,63.23
2019-01-30T04:20:13.633Z,63.36
2019-01-30T04:23:17.440Z,63.31
2019-01-30T04:26:21.195Z,63.44
2019-01-30T04:29:23.196Z,63.95
2019-01-30T04:32:26.299Z,63.88
2019-01-30T04:35:28.599Z,64.06
2019-01-30T04:38:30.591Z,64.24
2019-01-30T04:41:32.553Z,64.00
2019-01-30T04:44:34.499Z,64.01
2019-01-30T04:47:36.461Z,63.65
2019-01-30T04:50:38.421Z,63.62
2019-01-30T04:53:40.863Z,63.73
2019-01-30T04:56:42.794Z,63.62
2019-01-30T04:59:44.916Z,63.61
2019-01-30T05:02:49.080Z,63.63
2019-01-30T05:05:51.030Z,63.80
2019-01-30T05:08:55.884Z,64.37
2019-01-30T05:11:57.941Z,64.32
2019-01-30T05:14:59.881Z,64.07
2019-01-30T05:18:01.813Z,64.26
2019-01-30T05:21:03.773Z,64.82
2019-01-30T05:24:05.729Z,64.58
2019-01-30T05:27:07.676Z,64.58
2019-01-30T05:30:19.514Z,64.66
2019-01-30T05:33:21.458Z,64.30
2019-01-30T05:36:23.399Z,64.46
2019-01-30T05:39:25.425Z,64.60
2019-01-30T05:42:27.386Z,64.63
2019-01-30T05:45:29.426Z,64.86
2019-01-30T05:48:31.402Z,64.75
2019-01-30T05:51:33.335Z,64.61
2019-01-30T05:54:35.308Z,64.42
2019-01-30T05:57:37.266Z,64.36
2019-01-30T06:00:41.246Z,64.55
2019-01-30T06:03:44.634Z,64.41
2019-01-30T06:06:46.599Z,64.48
2019-01-30T06:09:48.539Z,64.52
2019-01-30T06:12:50.510Z,64.67
2019-01-30T06:15:52.553Z,64.58
2019-01-30T06:18:54.554Z,64.45
2019-01-30T06:21:56.510Z,64.22
2019-01-30T06:24:58.521Z,64.19
2019-01-30T06:28:00.526Z,64.37
2019-01-30T06:31:02.569Z,64.60
2019-01-30T06:34:04.516Z,64.47
2019-01-30T06:37:06.503Z,64.32
2019-01-30T06:40:12.097Z,64.42
2019-01-30T06:43:14.070Z,64.45
2019-01-30T06:46:16.058Z,64.48
2019-01-30T06:49:18.553Z,64.30
2019-01-30T06:52:20.472Z,64.15
2019-01-30T06:55:22.569Z,63.98
2019-01-30T06:58:24.595Z,62.33
2019-01-30T07:01:26.699Z,60.68
2019-01-30T07:04:28.663Z,59.07
2019-01-30T07:07:30.635Z,56.52
2019-01-30T07:10:32.601Z,55.38
2019-01-30T07:13:34.595Z,53.60
2019-01-30T07:16:36.544Z,51.83
2019-01-30T07:19:38.464Z,50.06
2019-01-30T07:22:40.545Z,48.61
2019-01-30T07:25:42.555Z,46.07
2019-01-30T07:28:44.534Z,44.29
2019-01-30T07:31:46.585Z,43.23
2019-01-30T07:34:48.615Z,42.89
2019-01-30T07:37:50.542Z,41.07
2019-01-30T07:40:52.554Z,39.63
2019-01-30T07:43:54.482Z,39.60
2019-01-30T07:46:57.141Z,37.67
2019-01-30T07:49:59.520Z,36.18
2019-01-30T07:53:01.501Z,35.25
2019-01-30T07:56:03.613Z,34.36
2019-01-30T07:59:05.594Z,33.41
2019-01-30T08:02:07.727Z,32.44
2019-01-30T08:05:09.905Z,31.42
2019-01-30T08:08:12.855Z,30.12
2019-01-30T08:11:14.784Z,29.10
2019-01-30T08:14:16.705Z,28.38
2019-01-30T08:17:21.030Z,27.00
2019-01-30T08:20:23.404Z,26.95
2019-01-30T08:23:25.742Z,26.72
2019-01-30T08:26:28.063Z,26.34
2019-01-30T08:29:30.140Z,26.00
2019-01-30T08:32:32.643Z,27.45
2019-01-30T08:35:34.790Z,27.01
2019-01-30T08:38:40.866Z,28.17
2019-01-30T08:41:44.779Z,30.79
2019-01-30T08:44:48.069Z,32.13
2019-01-30T08:47:50.062Z,34.76
2019-01-30T08:50:52.076Z,33.94
2019-01-30T08:53:54.104Z,35.17
2019-01-30T08:56:57.160Z,38.13
2019-01-30T08:59:59.193Z,40.58
2019-01-30T09:03:01.307Z,42.31
2019-01-30T09:06:03.390Z,44.17
2019-01-30T09:09:07.638Z,45.45
2019-01-30T09:12:09.553Z,46.28
2019-01-30T09:15:14.429Z,46.96
2019-01-30T09:18:16.396Z,47.90
2019-01-30T09:21:18.316Z,47.93
2019-01-30T09:24:20.305Z,48.68
2019-01-30T09:27:24.254Z,48.64
2019-01-30T09:30:32.202Z,49.30
2019-01-30T09:33:34.164Z,49.85
2019-01-30T09:36:36.079Z,49.56
2019-01-30T09:39:37.994Z,49.62
2019-01-30T09:42:40.003Z,49.40
2019-01-30T09:45:41.925Z,49.83
2019-01-30T09:48:45.039Z,50.13
2019-01-30T09:51:47.134Z,50.20
2019-01-30T09:54:49.069Z,49.84
2019-01-30T09:57:51.214Z,49.82
2019-01-30T10:00:53.395Z,49.77
2019-01-30T10:03:55.559Z,49.48
2019-01-30T10:06:57.501Z,49.61
2019-01-30T10:09:59.526Z,49.49
2019-01-30T10:13:01.587Z,49.50
2019-01-30T10:16:03.646Z,49.51
2019-01-30T10:19:05.671Z,49.87
2019-01-30T10:22:07.596Z,49.84
2019-01-30T10:25:09.842Z,50.42
2019-01-30T10:28:16.752Z,50.44
2019-01-30T10:31:15.820Z,51.15
2019-01-30T10:34:17.819Z,50.31
2019-01-30T10:37:19.799Z,50.47
2019-01-30T10:40:21.731Z,50.57
2019-01-30T10:43:23.745Z,51.08
2019-01-30T10:46:25.760Z,50.46
2019-01-30T10:49:27.716Z,51.13
2019-01-30T10:52:29.630Z,50.99
2019-01-30T10:55:33.449Z,50.73
2019-01-30T10:58:35.384Z,51.37
2019-01-30T11:01:37.546Z,51.68
2019-01-30T11:04:39.563Z,51.20
2019-01-30T11:07:41.635Z,50.86
2019-01-30T11:10:43.555Z,51.34
2019-01-30T11:13:45.504Z,51.54
2019-01-30T11:16:47.477Z,51.31
2019-01-30T11:19:49.420Z,51.37
2019-01-30T11:22:53.518Z,51.50
2019-01-30T11:25:57.003Z,51.37
2019-01-30T11:28:59.070Z,51.03
2019-01-30T11:32:00.984Z,51.18
2019-01-30T11:35:04.942Z,51.31
2019-01-30T11:38:08.880Z,51.15
2019-01-30T11:41:11.073Z,51.02
2019-01-30T11:44:12.983Z,51.33
2019-01-30T11:47:15.000Z,50.74
2019-01-30T11:50:17.038Z,50.68
2019-01-30T11:53:19.206Z,50.78
2019-01-30T11:56:21.225Z,50.53
2019-01-30T11:59:23.145Z,50.81
2019-01-30T12:02:25.105Z,50.42
2019-01-30T12:05:27.319Z,50.55
2019-01-30T12:08:29.475Z,50.63
2019-01-30T12:11:31.636Z,50.55
2019-01-30T12:14:33.943Z,50.44
2019-01-30T12:17:36.035Z,50.33
2019-01-30T12:20:38.050Z,50.40
2019-01-30T12:23:40.170Z,51.29
2019-01-30T12:26:42.229Z,50.95
2019-01-30T12:29:44.190Z,50.43
2019-01-30T12:32:47.253Z,50.44
2019-01-30T12:35:49.242Z,49.87
2019-01-30T12:38:51.137Z,49.36
2019-01-30T12:41:53.082Z,49.09
2019-01-30T12:44:55.126Z,49.30
2019-01-30T12:47:57.833Z,49.46
2019-01-30T12:50:59.800Z,50.09
2019-01-30T12:54:01.763Z,48.25
2019-01-30T12:57:03.828Z,49.44
2019-01-30T13:00:21.600Z,49.86
2019-01-30T13:03:23.556Z,49.47
2019-01-30T13:06:25.603Z,49.75
2019-01-30T13:09:28.580Z,49.16
2019-01-30T13:12:30.798Z,49.15
2019-01-30T13:15:32.743Z,49.64
2019-01-30T13:18:34.776Z,50.32
2019-01-30T13:21:36.794Z,50.58
2019-01-30T13:24:38.753Z,50.63
2019-01-30T13:27:40.767Z,50.22
2019-01-30T13:30:43.777Z,50.06
2019-01-30T13:33:46.074Z,50.66
2019-01-30T13:36:48.025Z,50.13
2019-01-30T13:39:50.032Z,51.14
2019-01-30T13:42:51.945Z,51.80
2019-01-30T13:45:53.910Z,51.91
2019-01-30T13:48:55.914Z,51.71
2019-01-30T13:51:57.999Z,51.97
2019-01-30T13:54:59.928Z,51.33
2019-01-30T13:58:01.907Z,51.86
2019-01-30T14:01:04.061Z,51.69
2019-01-30T14:04:05.996Z,50.90
2019-01-30T14:07:08.134Z,51.19
2019-01-30T14:10:11.328Z,51.18
2019-01-30T14:13:13.316Z,51.29
2019-01-30T14:16:15.279Z,51.40
2019-01-30T14:19:17.339Z,51.58
2019-01-30T14:22:19.598Z,51.98
2019-01-30T14:25:21.686Z,51.85
2019-01-30T14:28:23.719Z,52.01
2019-01-30T14:31:25.690Z,52.50
2019-01-30T14:34:27.656Z,52.73
2019-01-30T14:37:29.646Z,52.70
2019-01-30T14:40:31.703Z,52.98
2019-01-30T14:43:33.762Z,53.19
2019-01-30T14:46:35.798Z,53.35
2019-01-30T14:49:37.881Z,53.18
2019-01-30T14:52:39.847Z,53.09
2019-01-30T14:55:41.878Z,53.17
2019-01-30T14:58:45.243Z,53.25
2019-01-30T15:01:48.254Z,53.51
2019-01-30T15:04:50.265Z,53.71
2019-01-30T15:07:52.473Z,53.80
2019-01-30T15:10:54.499Z,53.88
2019-01-30T15:13:56.506Z,53.89
2019-01-30T15:16:58.523Z,54.01
2019-01-30T15:20:00.664Z,54.22
2019-01-30T15:23:04.338Z,54.10
2019-01-30T15:26:06.276Z,53.97
2019-01-30T15:29:08.192Z,53.96
2019-01-30T15:32:10.245Z,54.06
2019-01-30T15:35:12.706Z,54.21
2019-01-30T15:38:14.721Z,54.23
2019-01-30T15:41:16.656Z,54.60
2019-01-30T15:44:18.655Z,54.65
2019-01-30T15:47:20.644Z,54.61
2019-01-30T15:50:34.762Z,54.87
2019-01-30T15:53:36.798Z,55.05
2019-01-30T15:56:38.918Z,55.12
2019-01-30T15:59:40.832Z,55.02
2019-01-30T16:02:44.437Z,54.97
2019-01-30T16:05:46.669Z,55.00
2019-01-30T16:08:49.376Z,55.02
2019-01-30T16:11:51.377Z,55.04
2019-01-30T16:14:53.339Z,55.30
2019-01-30T16:17:55.277Z,55.32
2019-01-30T16:20:57.452Z,55.27
2019-01-30T16:23:59.338Z,55.41
2019-01-30T16:27:01.238Z,55.41
2019-01-30T16:30:09.573Z,55.42
2019-01-30T16:33:17.208Z,55.45
2019-01-30T16:36:27.609Z,55.61
2019-01-30T16:39:31.240Z,55.78
2019-01-30T16:42:33.178Z,56.27
2019-01-30T16:45:35.209Z,56.26
2019-01-30T16:48:37.191Z,56.42
2019-01-30T16:51:39.237Z,56.57
2019-01-30T16:54:41.215Z,56.90
2019-01-30T16:57:43.641Z,57.02
2019-01-30T17:00:46.734Z,57.27
2019-01-30T17:03:48.833Z,57.34
2019-01-30T17:06:51.238Z,57.23
2019-01-30T17:09:53.327Z,57.29
2019-01-30T17:12:55.392Z,57.63
2019-01-30T17:15:57.598Z,57.44
2019-01-30T17:18:59.594Z,57.40
2019-01-30T17:22:01.555Z,57.59
2019-01-30T17:25:08.231Z,57.54
2019-01-30T17:28:10.163Z,57.67
2019-01-30T17:31:12.189Z,57.87
2019-01-30T17:34:14.156Z,57.53
2019-01-30T17:37:16.809Z,57.58
2019-01-30T17:40:27.523Z,57.85
2019-01-30T17:43:29.473Z,57.78
2019-01-30T17:46:31.382Z,57.79
2019-01-30T17:49:33.328Z,58.05
2019-01-30T17:52:35.310Z,58.11
2019-01-30T17:55:37.334Z,58.04
2019-01-30T17:58:39.367Z,58.22
2019-01-30T18:01:41.302Z,58.38
2019-01-30T18:04:48.151Z,58.47
2019-01-30T18:07:50.571Z,58.58
2019-01-30T18:10:52.550Z,58.77
2019-01-30T18:13:59.398Z,58.63
2019-01-30T18:17:02.823Z,58.45
2019-01-30T18:20:09.110Z,58.43
2019-01-30T18:23:11.233Z,58.50
2019-01-30T18:26:16.813Z,58.37
2019-01-30T18:29:18.817Z,58.33
2019-01-30T18:32:22.349Z,58.46
2019-01-30T18:35:24.648Z,58.89
2019-01-30T18:38:29.345Z,58.98
2019-01-30T18:41:31.924Z,59.22
2019-01-30T18:44:36.143Z,59.31
2019-01-30T18:47:38.340Z,59.39
2019-01-30T18:50:40.743Z,59.72
2019-01-30T18:53:44.150Z,59.85
2019-01-30T18:56:48.250Z,59.66
2019-01-30T18:59:50.636Z,59.56
2019-01-30T19:02:56.052Z,59.62
2019-01-30T19:05:57.967Z,59.86
2019-01-30T19:08:59.987Z,60.11
2019-01-30T19:12:02.300Z,59.94
2019-01-30T19:15:11.100Z,59.84
2019-01-30T19:18:13.223Z,60.00
2019-01-30T19:21:15.212Z,60.10
2019-01-30T19:24:19.887Z,60.36
2019-01-30T19:27:22.465Z,60.32
2019-01-30T19:30:29.864Z,60.34
2019-01-30T19:33:31.792Z,60.02
2019-01-30T19:36:35.186Z,59.99
2019-01-30T19:39:37.337Z,59.80
2019-01-30T19:42:39.328Z,59.70
2019-01-30T19:45:43.178Z,59.96
2019-01-30T19:48:47.991Z,60.01
2019-01-30T19:51:50.283Z,60.00
2019-01-30T19:54:54.300Z,60.32
2019-01-30T19:57:56.471Z,60.49
2019-01-30T20:00:58.942Z,60.44
2019-01-30T20:04:03.473Z,60.33
2019-01-30T20:07:14.402Z,60.29
2019-01-30T20:10:17.553Z,60.19
2019-01-30T20:13:19.753Z,59.97
2019-01-30T20:16:22.858Z,60.16
2019-01-30T20:19:27.230Z,60.06
2019-01-30T20:22:31.407Z,60.20
2019-01-30T20:25:43.865Z,60.36
2019-01-30T20:28:44.970Z,60.65
2019-01-30T20:31:54.055Z,60.51
2019-01-30T20:34:57.878Z,60.80
2019-01-30T20:38:01.623Z,60.78
2019-01-30T20:41:05.647Z,60.87
2019-01-30T20:44:07.841Z,60.79
2019-01-30T20:47:10.273Z,60.79
2019-01-30T20:50:19.940Z,61.08
2019-01-30T20:53:21.949Z,61.01
2019-01-30T20:56:27.503Z,61.23
2019-01-30T20:59:36.103Z,61.42
2019-01-30T21:02:38.548Z,61.32
2019-01-30T21:05:40.637Z,61.16
2019-01-30T21:08:44.417Z,61.39
2019-01-30T21:11:46.389Z,61.44
2019-01-30T21:14:51.843Z,61.22
2019-01-30T21:17:53.824Z,60.97
2019-01-30T21:20:56.423Z,61.09
2019-01-30T21:23:58.409Z,61.33
2019-01-30T21:27:01.104Z,61.37
2019-01-30T21:30:06.800Z,61.70
2019-01-30T21:33:08.966Z,61.56
2019-01-30T21:36:11.984Z,61.50
2019-01-30T21:39:14.315Z,61.27
2019-01-30T21:42:18.097Z,61.22
2019-01-30T21:45:21.957Z,61.15
2019-01-30T21:48:25.045Z,61.65
2019-01-30T21:51:27.412Z,61.58
2019-01-30T21:54:33.622Z,61.75
2019-01-30T21:57:35.656Z,61.77
2019-01-30T22:00:38.629Z,62.25
2019-01-30T22:03:43.871Z,62.25
2019-01-30T22:06:46.292Z,62.05
2019-01-30T22:09:48.261Z,61.86
2019-01-30T22:12:50.221Z,61.73
2019-01-30T22:15:52.322Z,61.60
2019-01-30T22:18:54.261Z,61.50
2019-01-30T22:21:56.174Z,61.77
2019-01-30T22:24:58.154Z,62.15
2019-01-30T22:28:01.298Z,62.53
2019-01-30T22:31:03.397Z,62.27
2019-01-30T22:34:09.671Z,61.96
2019-01-30T22:37:13.907Z,61.85
2019-01-30T22:40:15.924Z,62.11
2019-01-30T22:43:17.911Z,62.20
2019-01-30T22:46:19.890Z,62.43
2019-01-30T22:49:21.888Z,62.38
2019-01-30T22:52:23.890Z,62.32
2019-01-30T22:55:25.849Z,62.11
2019-01-30T22:58:27.814Z,61.86
2019-01-30T23:01:33.414Z,61.45
2019-01-30T23:04:42.208Z,61.55
2019-01-30T23:07:47.648Z,62.24
2019-01-30T23:11:02.236Z,62.77
2019-01-30T23:14:04.647Z,62.81
2019-01-30T23:17:22.290Z,62.53
2019-01-30T23:20:24.859Z,62.37
2019-01-30T23:23:33.428Z,62.41
2019-01-30T23:26:38.997Z,62.54
2019-01-30T23:30:07.276Z,62.77
2019-01-30T23:33:32.493Z,62.87
2019-01-30T23:36:58.274Z,62.67
2019-01-30T23:40:03.899Z,62.46
2019-01-30T23:43:15.864Z,62.68
2019-01-30T23:46:30.306Z,62.76
2019-01-30T23:50:10.829Z,62.52
2019-01-30T23:53:46.309Z,61.99
2019-01-30T23:56:57.697Z,61.86
